sensor_id;sensor_type;location;lat;lon;timestamp;temperature;humidity
46562;DHT22;32289;42.688;23.330;2022-07-29T00:00:36;19.30;99.90
46562;DHT22;32289;42.688;23.330;2022-07-29T00:04:16;19.30;99.90
46562;DHT22;32289;42.688;23.330;2022-07-29T00:07:57;19.30;99.90
46562;DHT22;32289;42.688;23.330;2022-07-29T00:11:38;19.50;99.90
46562;DHT22;32289;42.688;23.330;2022-07-29T00:15:19;19.40;99.90
46562;DHT22;32289;42.688;23.330;2022-07-29T00:18:59;19.40;99.90
46562;DHT22;32289;42.688;23.330;2022-07-29T00:22:40;19.40;99.90
46562;DHT22;32289;42.688;23.330;2022-07-29T00:26:21;19.30;99.90
46562;DHT22;32289;42.688;23.330;2022-07-29T00:30:02;19.50;99.90
46562;DHT22;32289;42.688;23.330;2022-07-29T00:33:43;19.40;99.90
46562;DHT22;32289;42.688;23.330;2022-07-29T00:37:25;19.30;99.90
46562;DHT22;32289;42.688;23.330;2022-07-29T00:41:06;19.20;99.90
46562;DHT22;32289;42.688;23.330;2022-07-29T00:44:46;19.30;99.90
46562;DHT22;32289;42.688;23.330;2022-07-29T00:48:27;19.30;99.90
46562;DHT22;32289;42.688;23.330;2022-07-29T00:52:09;19.50;99.90
46562;DHT22;32289;42.688;23.330;2022-07-29T00:55:50;19.40;99.90
46562;DHT22;32289;42.688;23.330;2022-07-29T00:59:31;19.50;99.90
46562;DHT22;32289;42.688;23.330;2022-07-29T01:03:12;19.50;99.90
46562;DHT22;32289;42.688;23.330;2022-07-29T01:06:53;19.40;99.90
46562;DHT22;32289;42.688;23.330;2022-07-29T01:10:36;19.30;99.90
46562;DHT22;32289;42.688;23.330;2022-07-29T01:14:18;19.20;99.90
46562;DHT22;32289;42.688;23.330;2022-07-29T01:18:03;19.10;99.90
46562;DHT22;32289;42.688;23.330;2022-07-29T01:21:56;18.90;99.90
46562;DHT22;32289;42.688;23.330;2022-07-29T01:29:38;18.90;99.90
46562;DHT22;32289;42.688;23.330;2022-07-29T01:33:20;19.00;99.90
46562;DHT22;32289;42.688;23.330;2022-07-29T01:37:43;18.90;99.90
46562;DHT22;32289;42.688;23.330;2022-07-29T01:41:26;18.50;99.90
46562;DHT22;32289;42.688;23.330;2022-07-29T01:45:20;18.40;99.90
46562;DHT22;32289;42.688;23.330;2022-07-29T01:49:08;18.40;99.90
46562;DHT22;32289;42.688;23.330;2022-07-29T01:52:58;18.50;99.90
46562;DHT22;32289;42.688;23.330;2022-07-29T01:56:39;18.50;99.90
46562;DHT22;32289;42.688;23.330;2022-07-29T02:00:22;18.40;99.90
46562;DHT22;32289;42.688;23.330;2022-07-29T02:04:04;18.40;99.90
46562;DHT22;32289;42.688;23.330;2022-07-29T02:07:47;18.50;99.90
46562;DHT22;32289;42.688;23.330;2022-07-29T02:11:31;18.40;99.90
46562;DHT22;32289;42.688;23.330;2022-07-29T02:15:14;18.60;99.90
46562;DHT22;32289;42.688;23.330;2022-07-29T02:18:57;18.60;99.90
46562;DHT22;32289;42.688;23.330;2022-07-29T02:22:39;18.50;99.90
46562;DHT22;32289;42.688;23.330;2022-07-29T02:26:23;18.60;99.90
46562;DHT22;32289;42.688;23.330;2022-07-29T02:30:06;18.70;99.90
46562;DHT22;32289;42.688;23.330;2022-07-29T02:33:48;18.60;99.90
46562;DHT22;32289;42.688;23.330;2022-07-29T02:37:30;18.70;99.90
46562;DHT22;32289;42.688;23.330;2022-07-29T02:41:20;18.60;99.90
46562;DHT22;32289;42.688;23.330;2022-07-29T02:45:00;18.40;99.90
46562;DHT22;32289;42.688;23.330;2022-07-29T02:48:48;18.40;99.90
46562;DHT22;32289;42.688;23.330;2022-07-29T02:52:39;18.50;99.90
46562;DHT22;32289;42.688;23.330;2022-07-29T02:56:25;18.50;99.90
46562;DHT22;32289;42.688;23.330;2022-07-29T03:00:09;18.40;99.90
46562;DHT22;32289;42.688;23.330;2022-07-29T03:03:53;18.40;99.90
46562;DHT22;32289;42.688;23.330;2022-07-29T03:07:34;18.40;99.90
46562;DHT22;32289;42.688;23.330;2022-07-29T03:11:17;18.40;99.90
46562;DHT22;32289;42.688;23.330;2022-07-29T03:14:59;18.30;99.90
46562;DHT22;32289;42.688;23.330;2022-07-29T03:18:41;18.20;99.90
46562;DHT22;32289;42.688;23.330;2022-07-29T03:22:22;18.30;99.90
46562;DHT22;32289;42.688;23.330;2022-07-29T03:26:03;18.20;99.90
46562;DHT22;32289;42.688;23.330;2022-07-29T03:29:43;18.10;99.90
46562;DHT22;32289;42.688;23.330;2022-07-29T03:33:24;18.10;99.90
46562;DHT22;32289;42.688;23.330;2022-07-29T03:37:05;18.10;99.90
46562;DHT22;32289;42.688;23.330;2022-07-29T03:41:15;18.10;99.90
46562;DHT22;32289;42.688;23.330;2022-07-29T03:44:58;17.90;99.90
46562;DHT22;32289;42.688;23.330;2022-07-29T03:48:44;18.20;99.90
46562;DHT22;32289;42.688;23.330;2022-07-29T03:52:26;18.50;99.90
46562;DHT22;32289;42.688;23.330;2022-07-29T03:56:09;18.70;99.90
46562;DHT22;32289;42.688;23.330;2022-07-29T03:59:51;18.80;99.90
46562;DHT22;32289;42.688;23.330;2022-07-29T04:03:33;18.90;99.90
46562;DHT22;32289;42.688;23.330;2022-07-29T04:07:14;19.00;99.90
46562;DHT22;32289;42.688;23.330;2022-07-29T04:10:55;19.20;99.90
46562;DHT22;32289;42.688;23.330;2022-07-29T04:14:36;19.30;99.90
46562;DHT22;32289;42.688;23.330;2022-07-29T04:18:17;19.50;99.90
46562;DHT22;32289;42.688;23.330;2022-07-29T04:21:58;19.90;99.90
46562;DHT22;32289;42.688;23.330;2022-07-29T04:25:40;21.60;99.90
46562;DHT22;32289;42.688;23.330;2022-07-29T04:29:21;20.90;99.90
46562;DHT22;32289;42.688;23.330;2022-07-29T04:33:04;20.10;99.90
46562;DHT22;32289;42.688;23.330;2022-07-29T04:36:45;20.10;99.90
46562;DHT22;32289;42.688;23.330;2022-07-29T04:40:27;20.40;99.90
46562;DHT22;32289;42.688;23.330;2022-07-29T04:44:08;22.60;99.90
46562;DHT22;32289;42.688;23.330;2022-07-29T04:47:49;22.20;99.90
46562;DHT22;32289;42.688;23.330;2022-07-29T04:51:30;20.90;99.90
46562;DHT22;32289;42.688;23.330;2022-07-29T04:55:11;21.80;99.90
46562;DHT22;32289;42.688;23.330;2022-07-29T04:58:52;24.30;97.30
46562;DHT22;32289;42.688;23.330;2022-07-29T05:02:33;24.80;93.40
46562;DHT22;32289;42.688;23.330;2022-07-29T05:06:14;26.10;84.50
46562;DHT22;32289;42.688;23.330;2022-07-29T05:09:54;26.60;81.60
46562;DHT22;32289;42.688;23.330;2022-07-29T05:13:37;27.90;75.20
46562;DHT22;32289;42.688;23.330;2022-07-29T05:17:17;29.10;68.00
46562;DHT22;32289;42.688;23.330;2022-07-29T05:20:58;28.80;67.70
46562;DHT22;32289;42.688;23.330;2022-07-29T05:24:39;28.00;70.70
46562;DHT22;32289;42.688;23.330;2022-07-29T05:28:19;29.40;66.90
46562;DHT22;32289;42.688;23.330;2022-07-29T05:32:00;28.10;70.90
46562;DHT22;32289;42.688;23.330;2022-07-29T05:35:41;27.10;72.90
46562;DHT22;32289;42.688;23.330;2022-07-29T05:39:22;28.00;70.60
46562;DHT22;32289;42.688;23.330;2022-07-29T05:43:03;28.40;70.60
46562;DHT22;32289;42.688;23.330;2022-07-29T05:46:46;28.10;72.70
46562;DHT22;32289;42.688;23.330;2022-07-29T05:50:26;26.80;77.30
46562;DHT22;32289;42.688;23.330;2022-07-29T05:54:07;27.50;74.50
46562;DHT22;32289;42.688;23.330;2022-07-29T05:57:48;27.60;72.90
46562;DHT22;32289;42.688;23.330;2022-07-29T06:01:28;27.30;72.90
46562;DHT22;32289;42.688;23.330;2022-07-29T06:05:09;27.50;72.60
46562;DHT22;32289;42.688;23.330;2022-07-29T06:08:50;28.10;73.20
46562;DHT22;32289;42.688;23.330;2022-07-29T06:12:31;28.30;68.90
46562;DHT22;32289;42.688;23.330;2022-07-29T06:16:11;27.50;72.10
46562;DHT22;32289;42.688;23.330;2022-07-29T06:19:52;27.00;75.50
46562;DHT22;32289;42.688;23.330;2022-07-29T06:23:33;27.30;74.40
46562;DHT22;32289;42.688;23.330;2022-07-29T06:27:13;27.30;74.20
46562;DHT22;32289;42.688;23.330;2022-07-29T06:30:54;26.80;74.80
46562;DHT22;32289;42.688;23.330;2022-07-29T06:34:35;27.20;76.60
46562;DHT22;32289;42.688;23.330;2022-07-29T06:38:16;28.40;72.10
46562;DHT22;32289;42.688;23.330;2022-07-29T06:41:57;28.00;71.70
46562;DHT22;32289;42.688;23.330;2022-07-29T06:45:38;28.20;70.50
46562;DHT22;32289;42.688;23.330;2022-07-29T06:49:21;30.10;64.30
46562;DHT22;32289;42.688;23.330;2022-07-29T06:53:03;30.50;61.80
46562;DHT22;32289;42.688;23.330;2022-07-29T06:56:44;29.70;64.40
46562;DHT22;32289;42.688;23.330;2022-07-29T07:00:25;28.20;69.00
46562;DHT22;32289;42.688;23.330;2022-07-29T07:04:06;29.50;67.30
46562;DHT22;32289;42.688;23.330;2022-07-29T07:07:47;30.50;64.00
46562;DHT22;32289;42.688;23.330;2022-07-29T07:11:28;29.50;64.80
46562;DHT22;32289;42.688;23.330;2022-07-29T07:15:09;29.20;66.30
46562;DHT22;32289;42.688;23.330;2022-07-29T07:18:49;30.60;62.50
46562;DHT22;32289;42.688;23.330;2022-07-29T07:22:30;30.70;63.30
46562;DHT22;32289;42.688;23.330;2022-07-29T07:26:11;30.40;63.20
46562;DHT22;32289;42.688;23.330;2022-07-29T07:29:52;30.60;63.10
46562;DHT22;32289;42.688;23.330;2022-07-29T07:33:32;30.40;62.10
46562;DHT22;32289;42.688;23.330;2022-07-29T07:37:13;31.90;59.60
46562;DHT22;32289;42.688;23.330;2022-07-29T07:40:54;31.60;59.80
46562;DHT22;32289;42.688;23.330;2022-07-29T07:44:35;29.80;62.30
46562;DHT22;32289;42.688;23.330;2022-07-29T07:48:16;30.90;62.20
46562;DHT22;32289;42.688;23.330;2022-07-29T07:51:57;28.80;64.00
46562;DHT22;32289;42.688;23.330;2022-07-29T07:55:41;30.20;63.10
46562;DHT22;32289;42.688;23.330;2022-07-29T07:59:22;31.00;61.00
46562;DHT22;32289;42.688;23.330;2022-07-29T08:03:04;29.60;63.40
46562;DHT22;32289;42.688;23.330;2022-07-29T08:06:44;30.90;61.20
46562;DHT22;32289;42.688;23.330;2022-07-29T08:10:25;29.40;62.60
46562;DHT22;32289;42.688;23.330;2022-07-29T08:14:25;32.70;57.80
46562;DHT22;32289;42.688;23.330;2022-07-29T08:18:05;33.80;54.10
46562;DHT22;32289;42.688;23.330;2022-07-29T08:21:46;31.60;57.10
46562;DHT22;32289;42.688;23.330;2022-07-29T08:25:27;30.50;59.90
46562;DHT22;32289;42.688;23.330;2022-07-29T08:29:08;30.80;59.40
46562;DHT22;32289;42.688;23.330;2022-07-29T08:32:49;31.10;58.20
46562;DHT22;32289;42.688;23.330;2022-07-29T08:36:34;30.10;59.80
46562;DHT22;32289;42.688;23.330;2022-07-29T08:40:15;31.50;57.80
46562;DHT22;32289;42.688;23.330;2022-07-29T08:43:56;32.50;56.10
46562;DHT22;32289;42.688;23.330;2022-07-29T08:47:38;31.40;57.20
46562;DHT22;32289;42.688;23.330;2022-07-29T08:51:22;33.70;53.10
46562;DHT22;32289;42.688;23.330;2022-07-29T08:55:20;34.80;51.10
46562;DHT22;32289;42.688;23.330;2022-07-29T08:59:04;33.80;53.60
46562;DHT22;32289;42.688;23.330;2022-07-29T09:02:47;34.60;50.90
46562;DHT22;32289;42.688;23.330;2022-07-29T09:06:34;35.00;49.60
46562;DHT22;32289;42.688;23.330;2022-07-29T09:10:17;32.40;53.80
46562;DHT22;32289;42.688;23.330;2022-07-29T09:13:57;34.30;51.00
46562;DHT22;32289;42.688;23.330;2022-07-29T09:17:49;33.90;49.90
46562;DHT22;32289;42.688;23.330;2022-07-29T09:21:40;33.40;49.90
46562;DHT22;32289;42.688;23.330;2022-07-29T09:25:40;34.80;49.40
46562;DHT22;32289;42.688;23.330;2022-07-29T09:29:23;34.10;50.10
46562;DHT22;32289;42.688;23.330;2022-07-29T09:33:05;32.90;50.50
46562;DHT22;32289;42.688;23.330;2022-07-29T09:36:47;31.90;52.80
46562;DHT22;32289;42.688;23.330;2022-07-29T09:40:28;33.50;50.30
46562;DHT22;32289;42.688;23.330;2022-07-29T09:44:09;34.40;48.90
46562;DHT22;32289;42.688;23.330;2022-07-29T09:47:50;34.10;49.90
46562;DHT22;32289;42.688;23.330;2022-07-29T09:51:31;33.40;51.00
46562;DHT22;32289;42.688;23.330;2022-07-29T09:55:12;31.50;53.00
46562;DHT22;32289;42.688;23.330;2022-07-29T09:59:11;33.40;51.60
46562;DHT22;32289;42.688;23.330;2022-07-29T10:03:00;32.50;51.70
46562;DHT22;32289;42.688;23.330;2022-07-29T10:07:08;33.10;52.00
46562;DHT22;32289;42.688;23.330;2022-07-29T10:10:50;33.70;51.00
46562;DHT22;32289;42.688;23.330;2022-07-29T10:14:31;33.40;50.00
46562;DHT22;32289;42.688;23.330;2022-07-29T10:18:15;31.90;54.50
46562;DHT22;32289;42.688;23.330;2022-07-29T10:22:02;32.30;54.40
46562;DHT22;32289;42.688;23.330;2022-07-29T10:25:45;32.00;53.90
46562;DHT22;32289;42.688;23.330;2022-07-29T10:29:26;33.50;51.10
46562;DHT22;32289;42.688;23.330;2022-07-29T10:37:22;33.10;51.80
46562;DHT22;32289;42.688;23.330;2022-07-29T10:45:08;34.10;49.80
46562;DHT22;32289;42.688;23.330;2022-07-29T10:56:32;33.40;50.50
46562;DHT22;32289;42.688;23.330;2022-07-29T11:00:25;33.00;48.80
46562;DHT22;32289;42.688;23.330;2022-07-29T11:04:06;31.90;51.20
46562;DHT22;32289;42.688;23.330;2022-07-29T11:11:53;33.50;50.10
46562;DHT22;32289;42.688;23.330;2022-07-29T11:15:53;32.30;51.80
46562;DHT22;32289;42.688;23.330;2022-07-29T11:19:34;32.10;52.60
46562;DHT22;32289;42.688;23.330;2022-07-29T11:23:26;32.30;52.10
46562;DHT22;32289;42.688;23.330;2022-07-29T11:27:18;31.80;51.70
46562;DHT22;32289;42.688;23.330;2022-07-29T11:31:02;32.30;52.30
46562;DHT22;32289;42.688;23.330;2022-07-29T11:34:43;32.40;52.20
46562;DHT22;32289;42.688;23.330;2022-07-29T11:38:26;32.70;51.90
46562;DHT22;32289;42.688;23.330;2022-07-29T11:45:57;32.80;51.80
46562;DHT22;32289;42.688;23.330;2022-07-29T11:49:44;32.50;51.60
46562;DHT22;32289;42.688;23.330;2022-07-29T11:53:25;32.10;52.60
46562;DHT22;32289;42.688;23.330;2022-07-29T11:57:09;32.80;51.60
46562;DHT22;32289;42.688;23.330;2022-07-29T12:00:52;32.40;51.80
46562;DHT22;32289;42.688;23.330;2022-07-29T12:04:32;32.80;50.60
46562;DHT22;32289;42.688;23.330;2022-07-29T12:08:20;32.50;51.10
46562;DHT22;32289;42.688;23.330;2022-07-29T12:12:02;33.00;50.80
46562;DHT22;32289;42.688;23.330;2022-07-29T12:15:51;32.40;50.80
46562;DHT22;32289;42.688;23.330;2022-07-29T12:19:42;32.30;51.90
46562;DHT22;32289;42.688;23.330;2022-07-29T12:23:22;33.00;51.10
46562;DHT22;32289;42.688;23.330;2022-07-29T12:27:03;32.30;51.40
46562;DHT22;32289;42.688;23.330;2022-07-29T12:30:49;32.10;51.00
46562;DHT22;32289;42.688;23.330;2022-07-29T12:34:30;31.80;52.10
46562;DHT22;32289;42.688;23.330;2022-07-29T12:38:12;31.90;51.90
46562;DHT22;32289;42.688;23.330;2022-07-29T12:41:53;32.70;50.90
46562;DHT22;32289;42.688;23.330;2022-07-29T12:45:35;32.10;51.50
46562;DHT22;32289;42.688;23.330;2022-07-29T12:49:22;32.20;51.00
46562;DHT22;32289;42.688;23.330;2022-07-29T12:53:12;32.10;51.20
46562;DHT22;32289;42.688;23.330;2022-07-29T12:56:58;32.30;50.90
46562;DHT22;32289;42.688;23.330;2022-07-29T13:00:40;32.00;51.00
46562;DHT22;32289;42.688;23.330;2022-07-29T13:04:33;32.00;51.40
46562;DHT22;32289;42.688;23.330;2022-07-29T13:08:18;31.90;51.00
46562;DHT22;32289;42.688;23.330;2022-07-29T13:12:06;32.00;50.90
46562;DHT22;32289;42.688;23.330;2022-07-29T13:16:05;32.00;51.90
46562;DHT22;32289;42.688;23.330;2022-07-29T13:19:51;32.20;50.80
46562;DHT22;32289;42.688;23.330;2022-07-29T13:23:32;32.40;50.50
46562;DHT22;32289;42.688;23.330;2022-07-29T13:27:26;32.00;51.10
46562;DHT22;32289;42.688;23.330;2022-07-29T13:31:07;31.50;52.10
46562;DHT22;32289;42.688;23.330;2022-07-29T13:34:48;31.60;51.70
46562;DHT22;32289;42.688;23.330;2022-07-29T13:38:29;31.80;51.60
46562;DHT22;32289;42.688;23.330;2022-07-29T13:42:10;31.30;52.30
46562;DHT22;32289;42.688;23.330;2022-07-29T13:45:53;31.30;52.70
46562;DHT22;32289;42.688;23.330;2022-07-29T13:49:34;31.60;53.30
46562;DHT22;32289;42.688;23.330;2022-07-29T13:53:15;31.40;52.50
46562;DHT22;32289;42.688;23.330;2022-07-29T13:56:56;31.50;52.50
46562;DHT22;32289;42.688;23.330;2022-07-29T14:00:36;31.70;52.10
46562;DHT22;32289;42.688;23.330;2022-07-29T14:04:17;31.90;51.60
46562;DHT22;32289;42.688;23.330;2022-07-29T14:07:58;31.80;52.70
46562;DHT22;32289;42.688;23.330;2022-07-29T14:11:38;31.70;52.00
46562;DHT22;32289;42.688;23.330;2022-07-29T14:15:20;31.60;52.30
46562;DHT22;32289;42.688;23.330;2022-07-29T14:19:00;31.60;52.20
46562;DHT22;32289;42.688;23.330;2022-07-29T14:22:41;31.30;51.90
46562;DHT22;32289;42.688;23.330;2022-07-29T14:26:22;31.10;51.90
46562;DHT22;32289;42.688;23.330;2022-07-29T14:30:03;31.00;52.70
46562;DHT22;32289;42.688;23.330;2022-07-29T14:33:44;31.10;52.60
46562;DHT22;32289;42.688;23.330;2022-07-29T14:37:24;31.20;52.80
46562;DHT22;32289;42.688;23.330;2022-07-29T14:41:06;31.40;52.10
46562;DHT22;32289;42.688;23.330;2022-07-29T14:44:47;31.40;51.90
46562;DHT22;32289;42.688;23.330;2022-07-29T14:48:29;31.30;52.30
46562;DHT22;32289;42.688;23.330;2022-07-29T14:52:10;31.20;52.00
46562;DHT22;32289;42.688;23.330;2022-07-29T14:55:51;31.40;52.60
46562;DHT22;32289;42.688;23.330;2022-07-29T14:59:31;31.70;52.00
46562;DHT22;32289;42.688;23.330;2022-07-29T15:03:12;31.70;51.50
46562;DHT22;32289;42.688;23.330;2022-07-29T15:06:53;31.50;51.20
46562;DHT22;32289;42.688;23.330;2022-07-29T15:10:34;31.30;51.50
46562;DHT22;32289;42.688;23.330;2022-07-29T15:14:15;31.00;52.10
46562;DHT22;32289;42.688;23.330;2022-07-29T15:17:55;31.10;51.60
46562;DHT22;32289;42.688;23.330;2022-07-29T15:21:36;31.10;51.60
46562;DHT22;32289;42.688;23.330;2022-07-29T15:25:17;30.90;52.60
46562;DHT22;32289;42.688;23.330;2022-07-29T15:28:59;30.90;51.70
46562;DHT22;32289;42.688;23.330;2022-07-29T15:32:39;31.00;51.70
46562;DHT22;32289;42.688;23.330;2022-07-29T15:36:20;30.80;51.80
46562;DHT22;32289;42.688;23.330;2022-07-29T15:40:01;30.70;51.70
46562;DHT22;32289;42.688;23.330;2022-07-29T15:43:43;30.70;52.10
46562;DHT22;32289;42.688;23.330;2022-07-29T15:47:25;30.60;52.00
46562;DHT22;32289;42.688;23.330;2022-07-29T15:51:06;30.50;51.80
46562;DHT22;32289;42.688;23.330;2022-07-29T15:54:47;30.30;52.30
46562;DHT22;32289;42.688;23.330;2022-07-29T15:58:28;30.30;51.80
46562;DHT22;32289;42.688;23.330;2022-07-29T16:02:09;30.20;52.30
46562;DHT22;32289;42.688;23.330;2022-07-29T16:05:50;30.20;52.40
46562;DHT22;32289;42.688;23.330;2022-07-29T16:09:31;30.10;52.60
46562;DHT22;32289;42.688;23.330;2022-07-29T16:13:11;29.90;52.90
46562;DHT22;32289;42.688;23.330;2022-07-29T16:16:52;29.80;53.10
46562;DHT22;32289;42.688;23.330;2022-07-29T16:20:33;29.70;53.40
46562;DHT22;32289;42.688;23.330;2022-07-29T16:24:14;29.50;53.90
46562;DHT22;32289;42.688;23.330;2022-07-29T16:27:55;29.40;54.70
46562;DHT22;32289;42.688;23.330;2022-07-29T16:31:35;29.40;55.10
46562;DHT22;32289;42.688;23.330;2022-07-29T16:35:16;29.30;55.70
46562;DHT22;32289;42.688;23.330;2022-07-29T16:38:57;29.10;56.00
46562;DHT22;32289;42.688;23.330;2022-07-29T16:42:37;29.10;56.30
46562;DHT22;32289;42.688;23.330;2022-07-29T16:46:18;28.90;56.90
46562;DHT22;32289;42.688;23.330;2022-07-29T16:50:00;28.80;56.80
46562;DHT22;32289;42.688;23.330;2022-07-29T16:53:41;28.80;57.20
46562;DHT22;32289;42.688;23.330;2022-07-29T16:57:22;28.70;56.90
46562;DHT22;32289;42.688;23.330;2022-07-29T17:01:03;28.70;57.20
46562;DHT22;32289;42.688;23.330;2022-07-29T17:04:43;28.60;57.00
46562;DHT22;32289;42.688;23.330;2022-07-29T17:08:24;28.60;56.70
46562;DHT22;32289;42.688;23.330;2022-07-29T17:12:05;28.70;56.10
46562;DHT22;32289;42.688;23.330;2022-07-29T17:15:46;28.80;55.20
46562;DHT22;32289;42.688;23.330;2022-07-29T17:19:31;28.80;55.10
46562;DHT22;32289;42.688;23.330;2022-07-29T17:23:13;28.70;55.00
46562;DHT22;32289;42.688;23.330;2022-07-29T17:26:53;28.60;55.10
46562;DHT22;32289;42.688;23.330;2022-07-29T17:30:34;28.60;55.20
46562;DHT22;32289;42.688;23.330;2022-07-29T17:34:15;28.50;55.30
46562;DHT22;32289;42.688;23.330;2022-07-29T17:37:55;28.40;55.60
46562;DHT22;32289;42.688;23.330;2022-07-29T17:41:37;28.20;55.80
46562;DHT22;32289;42.688;23.330;2022-07-29T17:45:17;28.00;56.00
46562;DHT22;32289;42.688;23.330;2022-07-29T17:48:58;27.90;56.40
46562;DHT22;32289;42.688;23.330;2022-07-29T17:52:39;27.80;56.90
46562;DHT22;32289;42.688;23.330;2022-07-29T17:56:20;27.70;57.30
46562;DHT22;32289;42.688;23.330;2022-07-29T18:00:01;27.60;57.60
46562;DHT22;32289;42.688;23.330;2022-07-29T18:03:42;27.40;57.90
46562;DHT22;32289;42.688;23.330;2022-07-29T18:07:23;27.30;58.20
46562;DHT22;32289;42.688;23.330;2022-07-29T18:11:04;27.20;58.30
46562;DHT22;32289;42.688;23.330;2022-07-29T18:14:45;27.20;58.60
46562;DHT22;32289;42.688;23.330;2022-07-29T18:18:26;27.10;58.10
46562;DHT22;32289;42.688;23.330;2022-07-29T18:22:07;27.00;58.50
46562;DHT22;32289;42.688;23.330;2022-07-29T18:25:49;26.90;58.60
46562;DHT22;32289;42.688;23.330;2022-07-29T18:29:31;26.80;58.30
46562;DHT22;32289;42.688;23.330;2022-07-29T18:33:12;26.80;58.30
46562;DHT22;32289;42.688;23.330;2022-07-29T18:36:56;26.70;59.00
46562;DHT22;32289;42.688;23.330;2022-07-29T18:40:37;26.60;59.60
46562;DHT22;32289;42.688;23.330;2022-07-29T18:44:21;26.40;60.20
46562;DHT22;32289;42.688;23.330;2022-07-29T18:48:02;26.40;60.60
46562;DHT22;32289;42.688;23.330;2022-07-29T18:51:42;26.20;61.00
46562;DHT22;32289;42.688;23.330;2022-07-29T18:55:24;26.20;61.20
46562;DHT22;32289;42.688;23.330;2022-07-29T18:59:05;26.10;61.20
46562;DHT22;32289;42.688;23.330;2022-07-29T19:02:45;26.00;61.30
46562;DHT22;32289;42.688;23.330;2022-07-29T19:06:26;26.00;61.60
46562;DHT22;32289;42.688;23.330;2022-07-29T19:10:07;25.90;61.70
46562;DHT22;32289;42.688;23.330;2022-07-29T19:13:48;25.80;61.70
46562;DHT22;32289;42.688;23.330;2022-07-29T19:17:32;25.90;61.60
46562;DHT22;32289;42.688;23.330;2022-07-29T19:21:15;25.70;62.10
46562;DHT22;32289;42.688;23.330;2022-07-29T19:24:55;25.70;62.20
46562;DHT22;32289;42.688;23.330;2022-07-29T19:28:36;25.70;62.30
46562;DHT22;32289;42.688;23.330;2022-07-29T19:32:17;25.70;61.90
46562;DHT22;32289;42.688;23.330;2022-07-29T19:35:57;25.70;62.00
46562;DHT22;32289;42.688;23.330;2022-07-29T19:39:38;25.60;62.60
46562;DHT22;32289;42.688;23.330;2022-07-29T19:43:19;25.50;62.80
46562;DHT22;32289;42.688;23.330;2022-07-29T19:47:00;25.50;63.20
46562;DHT22;32289;42.688;23.330;2022-07-29T19:50:42;25.40;63.60
46562;DHT22;32289;42.688;23.330;2022-07-29T19:54:22;25.30;63.90
46562;DHT22;32289;42.688;23.330;2022-07-29T19:58:03;25.30;64.30
46562;DHT22;32289;42.688;23.330;2022-07-29T20:01:45;25.20;64.70
46562;DHT22;32289;42.688;23.330;2022-07-29T20:05:26;25.20;65.00
46562;DHT22;32289;42.688;23.330;2022-07-29T20:09:07;25.20;65.20
46562;DHT22;32289;42.688;23.330;2022-07-29T20:12:48;25.10;65.70
46562;DHT22;32289;42.688;23.330;2022-07-29T20:16:28;25.00;65.70
46562;DHT22;32289;42.688;23.330;2022-07-29T20:20:09;24.90;66.20
46562;DHT22;32289;42.688;23.330;2022-07-29T20:23:50;24.80;66.70
46562;DHT22;32289;42.688;23.330;2022-07-29T20:27:31;24.80;67.20
46562;DHT22;32289;42.688;23.330;2022-07-29T20:31:12;24.70;67.30
46562;DHT22;32289;42.688;23.330;2022-07-29T20:35:02;24.70;67.60
46562;DHT22;32289;42.688;23.330;2022-07-29T20:38:42;24.60;67.40
46562;DHT22;32289;42.688;23.330;2022-07-29T20:42:23;24.60;68.20
46562;DHT22;32289;42.688;23.330;2022-07-29T20:46:11;24.50;68.50
46562;DHT22;32289;42.688;23.330;2022-07-29T20:49:52;24.50;68.80
46562;DHT22;32289;42.688;23.330;2022-07-29T20:53:33;24.40;69.40
46562;DHT22;32289;42.688;23.330;2022-07-29T20:57:18;24.30;70.20
46562;DHT22;32289;42.688;23.330;2022-07-29T21:01:00;24.40;69.40
46562;DHT22;32289;42.688;23.330;2022-07-29T21:04:40;24.40;69.40
46562;DHT22;32289;42.688;23.330;2022-07-29T21:08:29;24.30;69.70
46562;DHT22;32289;42.688;23.330;2022-07-29T21:12:10;24.20;70.30
46562;DHT22;32289;42.688;23.330;2022-07-29T21:15:51;24.20;70.40
46562;DHT22;32289;42.688;23.330;2022-07-29T21:19:36;24.20;70.70
46562;DHT22;32289;42.688;23.330;2022-07-29T21:23:16;24.20;70.90
46562;DHT22;32289;42.688;23.330;2022-07-29T21:26:57;24.20;70.60
46562;DHT22;32289;42.688;23.330;2022-07-29T21:30:58;24.20;70.70
46562;DHT22;32289;42.688;23.330;2022-07-29T21:34:39;24.10;71.20
46562;DHT22;32289;42.688;23.330;2022-07-29T21:38:20;24.10;71.40
46562;DHT22;32289;42.688;23.330;2022-07-29T21:42:01;24.00;71.50
46562;DHT22;32289;42.688;23.330;2022-07-29T21:45:44;24.00;71.60
46562;DHT22;32289;42.688;23.330;2022-07-29T21:49:29;24.00;71.70
46562;DHT22;32289;42.688;23.330;2022-07-29T21:53:10;24.00;71.20
46562;DHT22;32289;42.688;23.330;2022-07-29T21:56:51;24.00;71.40
46562;DHT22;32289;42.688;23.330;2022-07-29T22:00:37;23.90;71.80
46562;DHT22;32289;42.688;23.330;2022-07-29T22:04:17;23.90;71.30
46562;DHT22;32289;42.688;23.330;2022-07-29T22:07:58;23.90;70.90
46562;DHT22;32289;42.688;23.330;2022-07-29T22:11:39;23.80;71.30
46562;DHT22;32289;42.688;23.330;2022-07-29T22:15:21;23.80;71.10
46562;DHT22;32289;42.688;23.330;2022-07-29T22:19:02;23.70;70.70
46562;DHT22;32289;42.688;23.330;2022-07-29T22:22:43;23.70;70.80
46562;DHT22;32289;42.688;23.330;2022-07-29T22:26:25;23.60;71.20
46562;DHT22;32289;42.688;23.330;2022-07-29T22:30:07;23.60;70.30
46562;DHT22;32289;42.688;23.330;2022-07-29T22:33:49;23.60;70.30
46562;DHT22;32289;42.688;23.330;2022-07-29T22:37:30;23.60;70.00
46562;DHT22;32289;42.688;23.330;2022-07-29T22:41:11;23.60;69.80
46562;DHT22;32289;42.688;23.330;2022-07-29T22:44:52;23.60;69.70
46562;DHT22;32289;42.688;23.330;2022-07-29T22:48:32;23.50;69.50
46562;DHT22;32289;42.688;23.330;2022-07-29T22:52:14;23.60;69.20
46562;DHT22;32289;42.688;23.330;2022-07-29T22:55:55;23.50;69.20
46562;DHT22;32289;42.688;23.330;2022-07-29T22:59:36;23.50;69.20
46562;DHT22;32289;42.688;23.330;2022-07-29T23:03:17;23.40;69.10
46562;DHT22;32289;42.688;23.330;2022-07-29T23:06:57;23.50;69.00
46562;DHT22;32289;42.688;23.330;2022-07-29T23:10:38;23.60;68.60
46562;DHT22;32289;42.688;23.330;2022-07-29T23:14:19;23.60;68.20
46562;DHT22;32289;42.688;23.330;2022-07-29T23:17:59;23.60;68.50
46562;DHT22;32289;42.688;23.330;2022-07-29T23:21:40;23.50;68.60
46562;DHT22;32289;42.688;23.330;2022-07-29T23:25:21;23.40;68.90
46562;DHT22;32289;42.688;23.330;2022-07-29T23:29:02;23.30;69.40